Home PIREPS Pireps

Flight BEL2223

  • Submitted By: David Chenery
  • Departure Airport: Stockholm-Bromma Airport (ESSB)
  • Arrival Airport: Bruxelles National (EBBR)
  • Aircraft: BAE AVRO RJ1 (OO-DWA)
  • Flight Time: 02.12
  • Date Submitted: 09/02/2018
  • Status: Accepted
Flight Details
Gross Revenue:
(83 load / € 171.00 per unit
€ 14,193.00
Fuel Cost:
(4390 fuel used @ 5.1 / unit)
€ 22,389.00

Additional Log Information:

View Log

Aircraft Used in flight is Brussels Airlines
13:26 Brakes are On
19:58 Brakes are Released
19:58 You Took off @ 157 Knots and Flaps at Position 2
Departure Weather
ESSB 092050Z 25001KT CAVOK M06/M07 Q1021rn
19:58 Landing Gear Up @ 161 Knots and 60 Feet
21:52 Below 10000 feet you are not allowed to go over 250 knots
21:53 Below FL100 you need to turn on the landing lights
22:01 Landing Gear Down @ 199 Knots and 2910 Feet
22:04 You Landed @ 161 Knots and with -300 Vertical Speed
Arrival Weather
EBBR 092250Z 23010KT 5000 BR BKN006 BKN039 01/M00 Q1013 TEMPO 3500rn
22:05 Brakes are On
22:06 Brussels Bel-Track1.0.1.2

Route Map

Corporate About Us Our Team Vacancies Information Fleet Route Network Rules and Regulations Operations Flight Schedules Event Center Tours Partners IVAO Vatsim Acars dev FSCB

fb Users Online No pilots online!
0 Pilot(s) and 108 Guest(s) Online
CMS by phpVMS - Design by Crazycreatives.com - Copyright © 2018 - Brussels Airlines Virtual